sensor_id;sensor_type;location;lat;lon;timestamp;P1;P2;P0
77320;PMS7003;66382;52.252;8.780;2022-12-24T18:52:53;12.50;12.50;10.50
77320;PMS7003;66382;52.252;8.780;2022-12-24T18:55:18;16.50;16.50;11.75
77320;PMS7003;66382;52.252;8.780;2022-12-24T18:57:44;15.75;15.50;10.00
77320;PMS7003;66382;52.252;8.780;2022-12-24T19:00:10;18.50;17.25;11.25
77320;PMS7003;66382;52.252;8.780;2022-12-24T19:02:36;20.25;20.25;13.75
77320;PMS7003;66382;52.252;8.780;2022-12-24T19:05:01;17.50;17.50;12.25
77320;PMS7003;66382;52.252;8.780;2022-12-24T19:07:27;28.50;27.50;17.25
77320;PMS7003;66382;52.252;8.780;2022-12-24T19:09:54;24.75;24.75;17.50
77320;PMS7003;66382;52.252;8.780;2022-12-24T19:12:19;19.50;19.50;14.00
77320;PMS7003;66382;52.252;8.780;2022-12-24T19:14:45;21.75;20.25;15.25
77320;PMS7003;66382;52.252;8.780;2022-12-24T19:17:10;19.00;18.00;13.00
77320;PMS7003;66382;52.252;8.780;2022-12-24T19:19:35;18.75;18.75;13.50
77320;PMS7003;66382;52.252;8.780;2022-12-24T19:22:01;18.50;18.50;14.25
77320;PMS7003;66382;52.252;8.780;2022-12-24T19:24:26;18.50;18.50;12.00
77320;PMS7003;66382;52.252;8.780;2022-12-24T19:26:53;18.75;18.50;13.50
77320;PMS7003;66382;52.252;8.780;2022-12-24T19:29:19;18.50;18.50;13.50
77320;PMS7003;66382;52.252;8.780;2022-12-24T19:31:44;23.00;22.75;14.75
77320;PMS7003;66382;52.252;8.780;2022-12-24T19:34:10;17.25;17.25;13.00
77320;PMS7003;66382;52.252;8.780;2022-12-24T19:36:35;18.25;18.00;13.00
77320;PMS7003;66382;52.252;8.780;2022-12-24T19:39:00;18.00;18.00;14.00
77320;PMS7003;66382;52.252;8.780;2022-12-24T19:41:27;20.25;20.25;14.00
77320;PMS7003;66382;52.252;8.780;2022-12-24T19:43:55;23.50;23.50;16.25
77320;PMS7003;66382;52.252;8.780;2022-12-24T19:46:23;27.25;25.75;17.50
77320;PMS7003;66382;52.252;8.780;2022-12-24T19:48:50;25.00;24.25;16.25
77320;PMS7003;66382;52.252;8.780;2022-12-24T19:51:17;24.25;24.25;15.75
77320;PMS7003;66382;52.252;8.780;2022-12-24T19:53:43;22.25;22.25;17.25
77320;PMS7003;66382;52.252;8.780;2022-12-24T19:56:09;26.25;25.75;18.00
77320;PMS7003;66382;52.252;8.780;2022-12-24T19:58:34;27.00;26.50;19.25
77320;PMS7003;66382;52.252;8.780;2022-12-24T20:01:04;29.00;27.25;20.00
77320;PMS7003;66382;52.252;8.780;2022-12-24T20:03:30;27.25;27.25;18.50
77320;PMS7003;66382;52.252;8.780;2022-12-24T20:05:56;29.25;29.25;18.50
77320;PMS7003;66382;52.252;8.780;2022-12-24T20:08:21;28.50;27.25;18.00
77320;PMS7003;66382;52.252;8.780;2022-12-24T20:10:47;24.75;24.75;16.50
77320;PMS7003;66382;52.252;8.780;2022-12-24T20:13:12;26.25;25.75;16.50
77320;PMS7003;66382;52.252;8.780;2022-12-24T20:15:38;33.25;33.25;19.75
77320;PMS7003;66382;52.252;8.780;2022-12-24T20:18:05;36.50;36.00;24.00
77320;PMS7003;66382;52.252;8.780;2022-12-24T20:20:31;32.25;32.25;19.50
77320;PMS7003;66382;52.252;8.780;2022-12-24T20:22:57;35.50;31.50;22.25
77320;PMS7003;66382;52.252;8.780;2022-12-24T20:25:22;27.00;27.00;18.75
77320;PMS7003;66382;52.252;8.780;2022-12-24T20:27:48;25.00;25.00;16.50
77320;PMS7003;66382;52.252;8.780;2022-12-24T20:30:14;22.75;21.75;17.25
77320;PMS7003;66382;52.252;8.780;2022-12-24T20:32:40;22.50;22.50;17.00
77320;PMS7003;66382;52.252;8.780;2022-12-24T20:35:07;17.75;17.75;14.75
77320;PMS7003;66382;52.252;8.780;2022-12-24T20:37:33;20.00;19.25;15.00
77320;PMS7003;66382;52.252;8.780;2022-12-24T20:39:58;20.00;20.00;14.25
77320;PMS7003;66382;52.252;8.780;2022-12-24T20:42:24;22.75;22.75;16.00
77320;PMS7003;66382;52.252;8.780;2022-12-24T20:44:49;23.75;23.75;17.00
77320;PMS7003;66382;52.252;8.780;2022-12-24T20:47:15;25.00;25.00;16.00
77320;PMS7003;66382;52.252;8.780;2022-12-24T20:49:40;19.50;19.00;14.50
77320;PMS7003;66382;52.252;8.780;2022-12-24T20:52:07;28.75;28.75;19.00
77320;PMS7003;66382;52.252;8.780;2022-12-24T20:54:32;28.50;27.75;15.50
77320;PMS7003;66382;52.252;8.780;2022-12-24T20:56:58;27.75;27.75;18.75
77320;PMS7003;66382;52.252;8.780;2022-12-24T20:59:23;33.75;31.50;19.75
77320;PMS7003;66382;52.252;8.780;2022-12-24T21:01:49;29.75;29.75;19.25
77320;PMS7003;66382;52.252;8.780;2022-12-24T21:04:14;31.00;31.00;22.25
77320;PMS7003;66382;52.252;8.780;2022-12-24T21:06:40;28.50;28.25;19.75
77320;PMS7003;66382;52.252;8.780;2022-12-24T21:09:06;27.75;26.75;18.75
77320;PMS7003;66382;52.252;8.780;2022-12-24T21:11:32;21.50;21.25;17.00
77320;PMS7003;66382;52.252;8.780;2022-12-24T21:13:57;37.75;37.00;23.00
77320;PMS7003;66382;52.252;8.780;2022-12-24T21:16:23;27.25;27.25;17.75
77320;PMS7003;66382;52.252;8.780;2022-12-24T21:18:49;24.00;24.00;17.50
77320;PMS7003;66382;52.252;8.780;2022-12-24T21:21:14;29.25;29.25;19.00
77320;PMS7003;66382;52.252;8.780;2022-12-24T21:23:40;32.50;29.75;19.00
77320;PMS7003;66382;52.252;8.780;2022-12-24T21:26:06;28.00;27.25;18.75
77320;PMS7003;66382;52.252;8.780;2022-12-24T21:28:32;24.00;24.00;17.75
77320;PMS7003;66382;52.252;8.780;2022-12-24T21:30:57;27.50;27.50;18.25
77320;PMS7003;66382;52.252;8.780;2022-12-24T21:33:23;23.75;23.75;17.00
77320;PMS7003;66382;52.252;8.780;2022-12-24T21:35:49;24.00;24.00;17.50
77320;PMS7003;66382;52.252;8.780;2022-12-24T21:38:21;22.50;22.50;17.00
77320;PMS7003;66382;52.252;8.780;2022-12-24T21:40:55;26.50;25.00;16.75
77320;PMS7003;66382;52.252;8.780;2022-12-24T21:43:23;27.75;27.75;18.25
77320;PMS7003;66382;52.252;8.780;2022-12-24T21:45:48;23.00;23.00;16.00
77320;PMS7003;66382;52.252;8.780;2022-12-24T21:48:14;25.00;25.00;18.25
77320;PMS7003;66382;52.252;8.780;2022-12-24T21:50:39;22.50;22.50;16.25
77320;PMS7003;66382;52.252;8.780;2022-12-24T21:53:05;26.75;25.75;17.50
77320;PMS7003;66382;52.252;8.780;2022-12-24T21:55:30;30.00;29.75;20.00
77320;PMS7003;66382;52.252;8.780;2022-12-24T21:57:56;27.00;27.00;18.75
77320;PMS7003;66382;52.252;8.780;2022-12-24T22:00:22;26.25;26.25;16.75
77320;PMS7003;66382;52.252;8.780;2022-12-24T22:02:48;28.25;27.50;19.50
77320;PMS7003;66382;52.252;8.780;2022-12-24T22:05:15;32.25;32.25;19.25
77320;PMS7003;66382;52.252;8.780;2022-12-24T22:07:41;26.75;25.50;18.00
77320;PMS7003;66382;52.252;8.780;2022-12-24T22:10:07;25.50;25.50;18.00
77320;PMS7003;66382;52.252;8.780;2022-12-24T22:12:34;24.50;24.50;16.50
77320;PMS7003;66382;52.252;8.780;2022-12-24T22:14:59;26.25;26.25;17.00
77320;PMS7003;66382;52.252;8.780;2022-12-24T22:17:27;25.75;25.75;17.00
77320;PMS7003;66382;52.252;8.780;2022-12-24T22:19:53;29.25;29.25;19.00
77320;PMS7003;66382;52.252;8.780;2022-12-24T22:22:18;30.25;30.25;20.25
77320;PMS7003;66382;52.252;8.780;2022-12-24T22:24:44;37.50;36.75;23.75
77320;PMS7003;66382;52.252;8.780;2022-12-24T22:27:10;34.50;32.50;22.00
77320;PMS7003;66382;52.252;8.780;2022-12-24T22:29:36;38.50;37.25;25.50
77320;PMS7003;66382;52.252;8.780;2022-12-24T22:32:02;32.75;32.25;21.00
77320;PMS7003;66382;52.252;8.780;2022-12-24T22:34:29;27.25;24.75;17.00
77320;PMS7003;66382;52.252;8.780;2022-12-24T22:36:55;30.25;30.25;22.00
77320;PMS7003;66382;52.252;8.780;2022-12-24T22:39:20;29.75;27.75;19.25
77320;PMS7003;66382;52.252;8.780;2022-12-24T22:41:46;29.00;27.25;17.75
77320;PMS7003;66382;52.252;8.780;2022-12-24T22:44:11;22.25;22.25;17.00
77320;PMS7003;66382;52.252;8.780;2022-12-24T22:46:37;21.00;21.00;14.25
77320;PMS7003;66382;52.252;8.780;2022-12-24T22:49:03;25.00;25.00;16.50
77320;PMS7003;66382;52.252;8.780;2022-12-24T22:51:30;38.50;37.75;24.75
77320;PMS7003;66382;52.252;8.780;2022-12-24T22:53:55;55.50;47.75;29.00
77320;PMS7003;66382;52.252;8.780;2022-12-24T22:56:21;41.25;37.50;24.25
77320;PMS7003;66382;52.252;8.780;2022-12-24T22:58:47;47.75;43.25;28.00
77320;PMS7003;66382;52.252;8.780;2022-12-24T23:01:17;51.25;44.00;28.00
77320;PMS7003;66382;52.252;8.780;2022-12-24T23:03:43;36.00;36.00;20.50
77320;PMS7003;66382;52.252;8.780;2022-12-24T23:06:09;34.50;32.75;22.25
77320;PMS7003;66382;52.252;8.780;2022-12-24T23:08:36;31.25;29.50;19.00
77320;PMS7003;66382;52.252;8.780;2022-12-24T23:11:03;23.25;23.25;17.75
77320;PMS7003;66382;52.252;8.780;2022-12-24T23:13:31;23.75;23.75;16.25
77320;PMS7003;66382;52.252;8.780;2022-12-24T23:15:59;22.50;22.25;14.75
77320;PMS7003;66382;52.252;8.780;2022-12-24T23:18:25;25.00;25.00;18.00
77320;PMS7003;66382;52.252;8.780;2022-12-24T23:20:52;25.75;25.75;18.75
77320;PMS7003;66382;52.252;8.780;2022-12-24T23:23:18;23.75;23.75;14.25
77320;PMS7003;66382;52.252;8.780;2022-12-24T23:25:45;20.00;20.00;14.25
77320;PMS7003;66382;52.252;8.780;2022-12-24T23:28:11;22.50;21.75;14.25
77320;PMS7003;66382;52.252;8.780;2022-12-24T23:30:37;19.75;19.75;14.75
77320;PMS7003;66382;52.252;8.780;2022-12-24T23:33:03;17.75;17.75;13.00
77320;PMS7003;66382;52.252;8.780;2022-12-24T23:35:29;19.25;18.00;12.25
77320;PMS7003;66382;52.252;8.780;2022-12-24T23:37:55;16.75;16.75;13.50
77320;PMS7003;66382;52.252;8.780;2022-12-24T23:40:20;20.25;20.25;13.75
77320;PMS7003;66382;52.252;8.780;2022-12-24T23:42:48;19.25;19.25;13.50
77320;PMS7003;66382;52.252;8.780;2022-12-24T23:45:14;17.50;17.50;13.00
77320;PMS7003;66382;52.252;8.780;2022-12-24T23:47:40;16.00;16.00;12.25
77320;PMS7003;66382;52.252;8.780;2022-12-24T23:50:06;22.00;21.50;14.50
77320;PMS7003;66382;52.252;8.780;2022-12-24T23:52:32;22.25;19.75;14.00
77320;PMS7003;66382;52.252;8.780;2022-12-24T23:54:58;18.00;18.00;13.50
77320;PMS7003;66382;52.252;8.780;2022-12-24T23:57:24;20.00;20.00;13.75
77320;PMS7003;66382;52.252;8.780;2022-12-24T23:59:51;16.50;16.50;11.00
